sensor_id;sensor_type;location;lat;lon;timestamp;P1;durP1;ratioP1;P2;durP2;ratioP2
15130;SDS011;7666;50.920;4.628;2023-07-30T00:01:22;7.73;;;2.73;;
15130;SDS011;7666;50.920;4.628;2023-07-30T00:04:08;6.63;;;2.73;;
15130;SDS011;7666;50.920;4.628;2023-07-30T00:06:54;7.93;;;2.90;;
15130;SDS011;7666;50.920;4.628;2023-07-30T00:09:39;10.37;;;2.97;;
15130;SDS011;7666;50.920;4.628;2023-07-30T00:12:25;9.33;;;2.70;;
15130;SDS011;7666;50.920;4.628;2023-07-30T00:15:11;5.57;;;2.73;;
15130;SDS011;7666;50.920;4.628;2023-07-30T00:17:58;9.33;;;2.70;;
15130;SDS011;7666;50.920;4.628;2023-07-30T00:20:44;9.47;;;3.20;;
15130;SDS011;7666;50.920;4.628;2023-07-30T00:23:30;7.03;;;3.10;;
15130;SDS011;7666;50.920;4.628;2023-07-30T00:26:16;9.90;;;2.93;;
15130;SDS011;7666;50.920;4.628;2023-07-30T00:29:02;8.53;;;3.10;;
15130;SDS011;7666;50.920;4.628;2023-07-30T00:31:48;12.73;;;3.27;;
15130;SDS011;7666;50.920;4.628;2023-07-30T00:34:34;10.83;;;3.40;;
15130;SDS011;7666;50.920;4.628;2023-07-30T00:37:20;8.13;;;3.17;;
15130;SDS011;7666;50.920;4.628;2023-07-30T00:40:06;9.37;;;3.27;;
15130;SDS011;7666;50.920;4.628;2023-07-30T00:42:52;7.10;;;3.00;;
15130;SDS011;7666;50.920;4.628;2023-07-30T00:45:38;11.43;;;3.97;;
15130;SDS011;7666;50.920;4.628;2023-07-30T00:48:26;11.80;;;3.17;;
15130;SDS011;7666;50.920;4.628;2023-07-30T00:51:13;10.73;;;3.23;;
15130;SDS011;7666;50.920;4.628;2023-07-30T00:54:01;8.47;;;3.43;;
15130;SDS011;7666;50.920;4.628;2023-07-30T00:56:50;12.30;;;3.87;;
15130;SDS011;7666;50.920;4.628;2023-07-30T00:59:38;9.93;;;3.23;;
15130;SDS011;7666;50.920;4.628;2023-07-30T01:02:24;10.80;;;3.23;;
15130;SDS011;7666;50.920;4.628;2023-07-30T01:05:10;9.97;;;3.30;;
15130;SDS011;7666;50.920;4.628;2023-07-30T01:07:56;10.80;;;3.03;;
15130;SDS011;7666;50.920;4.628;2023-07-30T01:10:42;12.03;;;3.10;;
15130;SDS011;7666;50.920;4.628;2023-07-30T01:13:29;13.47;;;3.43;;
15130;SDS011;7666;50.920;4.628;2023-07-30T01:16:16;16.93;;;4.07;;
15130;SDS011;7666;50.920;4.628;2023-07-30T01:19:02;11.30;;;3.03;;
15130;SDS011;7666;50.920;4.628;2023-07-30T01:21:49;12.97;;;3.07;;
15130;SDS011;7666;50.920;4.628;2023-07-30T01:24:35;10.00;;;2.83;;
15130;SDS011;7666;50.920;4.628;2023-07-30T01:27:31;10.50;;;3.10;;
15130;SDS011;7666;50.920;4.628;2023-07-30T01:30:25;7.87;;;2.97;;
15130;SDS011;7666;50.920;4.628;2023-07-30T01:33:17;11.77;;;3.20;;
15130;SDS011;7666;50.920;4.628;2023-07-30T01:36:03;10.43;;;2.80;;
15130;SDS011;7666;50.920;4.628;2023-07-30T01:38:50;8.53;;;2.90;;
15130;SDS011;7666;50.920;4.628;2023-07-30T01:41:37;9.20;;;2.93;;
15130;SDS011;7666;50.920;4.628;2023-07-30T01:44:23;12.77;;;3.57;;
15130;SDS011;7666;50.920;4.628;2023-07-30T01:47:09;14.03;;;4.03;;
15130;SDS011;7666;50.920;4.628;2023-07-30T01:49:55;11.53;;;3.37;;
15130;SDS011;7666;50.920;4.628;2023-07-30T01:52:41;12.67;;;3.17;;
15130;SDS011;7666;50.920;4.628;2023-07-30T01:55:27;9.43;;;3.00;;
15130;SDS011;7666;50.920;4.628;2023-07-30T01:58:13;15.27;;;3.27;;
15130;SDS011;7666;50.920;4.628;2023-07-30T02:00:59;12.30;;;3.67;;
15130;SDS011;7666;50.920;4.628;2023-07-30T02:03:45;11.17;;;3.20;;
15130;SDS011;7666;50.920;4.628;2023-07-30T02:06:31;10.80;;;2.73;;
15130;SDS011;7666;50.920;4.628;2023-07-30T02:09:17;12.73;;;3.40;;
15130;SDS011;7666;50.920;4.628;2023-07-30T02:12:03;12.77;;;3.30;;
15130;SDS011;7666;50.920;4.628;2023-07-30T02:14:49;9.07;;;3.00;;
15130;SDS011;7666;50.920;4.628;2023-07-30T02:17:35;12.27;;;3.17;;
15130;SDS011;7666;50.920;4.628;2023-07-30T02:20:21;12.80;;;3.43;;
15130;SDS011;7666;50.920;4.628;2023-07-30T02:23:07;9.63;;;2.90;;
15130;SDS011;7666;50.920;4.628;2023-07-30T02:25:54;6.33;;;2.30;;
15130;SDS011;7666;50.920;4.628;2023-07-30T02:28:39;10.30;;;3.07;;
15130;SDS011;7666;50.920;4.628;2023-07-30T02:31:25;10.33;;;3.33;;
15130;SDS011;7666;50.920;4.628;2023-07-30T02:34:11;9.57;;;3.03;;
15130;SDS011;7666;50.920;4.628;2023-07-30T02:36:57;12.97;;;3.17;;
15130;SDS011;7666;50.920;4.628;2023-07-30T02:39:43;12.70;;;2.93;;
15130;SDS011;7666;50.920;4.628;2023-07-30T02:42:29;10.70;;;3.00;;
15130;SDS011;7666;50.920;4.628;2023-07-30T02:45:16;11.73;;;2.87;;
15130;SDS011;7666;50.920;4.628;2023-07-30T02:48:03;10.90;;;3.60;;
15130;SDS011;7666;50.920;4.628;2023-07-30T02:50:49;6.43;;;2.87;;
15130;SDS011;7666;50.920;4.628;2023-07-30T02:53:35;13.67;;;3.00;;
15130;SDS011;7666;50.920;4.628;2023-07-30T02:56:21;12.80;;;3.23;;
15130;SDS011;7666;50.920;4.628;2023-07-30T02:59:07;9.97;;;2.50;;
15130;SDS011;7666;50.920;4.628;2023-07-30T03:01:53;10.43;;;3.00;;
15130;SDS011;7666;50.920;4.628;2023-07-30T03:04:39;13.23;;;3.37;;
15130;SDS011;7666;50.920;4.628;2023-07-30T03:07:25;13.63;;;3.03;;
15130;SDS011;7666;50.920;4.628;2023-07-30T03:10:11;10.57;;;3.20;;
15130;SDS011;7666;50.920;4.628;2023-07-30T03:12:57;10.13;;;3.00;;
15130;SDS011;7666;50.920;4.628;2023-07-30T03:15:43;8.83;;;3.00;;
15130;SDS011;7666;50.920;4.628;2023-07-30T03:18:29;12.53;;;3.40;;
15130;SDS011;7666;50.920;4.628;2023-07-30T03:21:15;15.13;;;3.43;;
15130;SDS011;7666;50.920;4.628;2023-07-30T03:24:01;12.90;;;2.90;;
15130;SDS011;7666;50.920;4.628;2023-07-30T03:26:47;11.17;;;2.97;;
15130;SDS011;7666;50.920;4.628;2023-07-30T03:29:33;14.10;;;3.20;;
15130;SDS011;7666;50.920;4.628;2023-07-30T03:32:19;13.83;;;3.13;;
15130;SDS011;7666;50.920;4.628;2023-07-30T03:35:05;13.83;;;3.10;;
15130;SDS011;7666;50.920;4.628;2023-07-30T03:37:51;10.77;;;2.90;;
15130;SDS011;7666;50.920;4.628;2023-07-30T03:40:37;14.67;;;3.60;;
15130;SDS011;7666;50.920;4.628;2023-07-30T03:43:23;12.00;;;2.57;;
15130;SDS011;7666;50.920;4.628;2023-07-30T03:46:09;10.67;;;3.37;;
15130;SDS011;7666;50.920;4.628;2023-07-30T03:48:55;13.03;;;3.40;;
15130;SDS011;7666;50.920;4.628;2023-07-30T03:51:41;10.00;;;2.97;;
15130;SDS011;7666;50.920;4.628;2023-07-30T03:54:27;9.93;;;2.63;;
15130;SDS011;7666;50.920;4.628;2023-07-30T03:57:13;11.53;;;3.00;;
15130;SDS011;7666;50.920;4.628;2023-07-30T03:59:59;15.53;;;3.53;;
15130;SDS011;7666;50.920;4.628;2023-07-30T04:02:45;12.53;;;3.37;;
15130;SDS011;7666;50.920;4.628;2023-07-30T04:05:31;14.03;;;3.23;;
15130;SDS011;7666;50.920;4.628;2023-07-30T04:08:17;14.97;;;3.10;;
15130;SDS011;7666;50.920;4.628;2023-07-30T04:11:03;13.70;;;3.23;;
15130;SDS011;7666;50.920;4.628;2023-07-30T04:13:49;12.53;;;3.10;;
15130;SDS011;7666;50.920;4.628;2023-07-30T04:16:35;12.20;;;3.43;;
15130;SDS011;7666;50.920;4.628;2023-07-30T04:19:21;13.30;;;2.93;;
15130;SDS011;7666;50.920;4.628;2023-07-30T04:22:07;15.10;;;3.20;;
15130;SDS011;7666;50.920;4.628;2023-07-30T04:24:53;13.40;;;3.60;;
15130;SDS011;7666;50.920;4.628;2023-07-30T04:27:39;13.67;;;2.77;;
15130;SDS011;7666;50.920;4.628;2023-07-30T04:30:25;16.53;;;3.47;;
15130;SDS011;7666;50.920;4.628;2023-07-30T04:33:11;15.97;;;3.63;;
15130;SDS011;7666;50.920;4.628;2023-07-30T04:35:58;19.40;;;3.73;;
15130;SDS011;7666;50.920;4.628;2023-07-30T04:38:44;17.13;;;3.77;;
15130;SDS011;7666;50.920;4.628;2023-07-30T04:41:30;13.63;;;3.70;;
15130;SDS011;7666;50.920;4.628;2023-07-30T04:44:16;15.60;;;3.87;;
15130;SDS011;7666;50.920;4.628;2023-07-30T04:47:02;14.83;;;2.83;;
15130;SDS011;7666;50.920;4.628;2023-07-30T04:49:48;12.40;;;3.20;;
15130;SDS011;7666;50.920;4.628;2023-07-30T04:52:35;12.77;;;3.50;;
15130;SDS011;7666;50.920;4.628;2023-07-30T04:55:21;16.93;;;3.30;;
15130;SDS011;7666;50.920;4.628;2023-07-30T04:58:07;12.43;;;2.67;;
15130;SDS011;7666;50.920;4.628;2023-07-30T05:00:53;12.83;;;3.23;;
15130;SDS011;7666;50.920;4.628;2023-07-30T05:03:39;14.77;;;3.37;;
15130;SDS011;7666;50.920;4.628;2023-07-30T05:06:25;14.47;;;3.40;;
15130;SDS011;7666;50.920;4.628;2023-07-30T05:09:11;16.93;;;4.03;;
15130;SDS011;7666;50.920;4.628;2023-07-30T05:11:57;17.00;;;3.73;;
15130;SDS011;7666;50.920;4.628;2023-07-30T05:14:43;16.00;;;3.20;;
15130;SDS011;7666;50.920;4.628;2023-07-30T05:17:29;11.47;;;2.93;;
15130;SDS011;7666;50.920;4.628;2023-07-30T05:20:15;18.13;;;3.57;;
15130;SDS011;7666;50.920;4.628;2023-07-30T05:23:01;14.20;;;3.17;;
15130;SDS011;7666;50.920;4.628;2023-07-30T05:25:47;18.90;;;3.73;;
15130;SDS011;7666;50.920;4.628;2023-07-30T05:28:33;20.00;;;3.63;;
15130;SDS011;7666;50.920;4.628;2023-07-30T05:31:19;14.43;;;3.53;;
15130;SDS011;7666;50.920;4.628;2023-07-30T05:34:05;13.03;;;2.87;;
15130;SDS011;7666;50.920;4.628;2023-07-30T05:36:51;16.23;;;3.87;;
15130;SDS011;7666;50.920;4.628;2023-07-30T05:39:37;17.80;;;3.57;;
15130;SDS011;7666;50.920;4.628;2023-07-30T05:42:23;12.10;;;2.90;;
15130;SDS011;7666;50.920;4.628;2023-07-30T05:45:09;14.73;;;3.13;;
15130;SDS011;7666;50.920;4.628;2023-07-30T05:47:55;15.63;;;3.30;;
15130;SDS011;7666;50.920;4.628;2023-07-30T05:50:41;13.90;;;3.60;;
15130;SDS011;7666;50.920;4.628;2023-07-30T05:53:27;11.97;;;3.67;;
15130;SDS011;7666;50.920;4.628;2023-07-30T05:56:13;15.23;;;3.13;;
15130;SDS011;7666;50.920;4.628;2023-07-30T05:58:59;10.57;;;3.40;;
15130;SDS011;7666;50.920;4.628;2023-07-30T06:01:45;15.50;;;3.70;;
15130;SDS011;7666;50.920;4.628;2023-07-30T06:04:31;15.57;;;3.93;;
15130;SDS011;7666;50.920;4.628;2023-07-30T06:07:17;19.00;;;4.20;;
15130;SDS011;7666;50.920;4.628;2023-07-30T06:10:03;15.37;;;3.57;;
15130;SDS011;7666;50.920;4.628;2023-07-30T06:12:49;13.30;;;3.30;;
15130;SDS011;7666;50.920;4.628;2023-07-30T06:15:35;19.73;;;3.70;;
15130;SDS011;7666;50.920;4.628;2023-07-30T06:18:21;15.80;;;3.10;;
15130;SDS011;7666;50.920;4.628;2023-07-30T06:21:07;13.10;;;3.10;;
15130;SDS011;7666;50.920;4.628;2023-07-30T06:23:53;18.60;;;4.13;;
15130;SDS011;7666;50.920;4.628;2023-07-30T06:26:39;14.77;;;3.33;;
15130;SDS011;7666;50.920;4.628;2023-07-30T06:29:25;17.27;;;4.07;;
15130;SDS011;7666;50.920;4.628;2023-07-30T06:32:11;17.87;;;3.83;;
15130;SDS011;7666;50.920;4.628;2023-07-30T06:34:57;14.77;;;3.63;;
15130;SDS011;7666;50.920;4.628;2023-07-30T06:37:43;19.13;;;3.53;;
15130;SDS011;7666;50.920;4.628;2023-07-30T06:40:29;13.27;;;3.50;;
15130;SDS011;7666;50.920;4.628;2023-07-30T06:43:15;12.13;;;3.10;;
15130;SDS011;7666;50.920;4.628;2023-07-30T06:46:01;12.33;;;3.10;;
15130;SDS011;7666;50.920;4.628;2023-07-30T06:48:47;16.33;;;4.23;;
15130;SDS011;7666;50.920;4.628;2023-07-30T06:51:33;12.40;;;3.33;;
15130;SDS011;7666;50.920;4.628;2023-07-30T06:54:20;17.63;;;3.63;;
15130;SDS011;7666;50.920;4.628;2023-07-30T06:57:06;17.40;;;4.20;;
15130;SDS011;7666;50.920;4.628;2023-07-30T06:59:52;14.50;;;3.40;;
15130;SDS011;7666;50.920;4.628;2023-07-30T07:02:38;14.27;;;3.60;;
15130;SDS011;7666;50.920;4.628;2023-07-30T07:05:24;12.80;;;3.57;;
15130;SDS011;7666;50.920;4.628;2023-07-30T07:08:10;12.13;;;3.07;;
15130;SDS011;7666;50.920;4.628;2023-07-30T07:10:56;18.50;;;3.97;;
15130;SDS011;7666;50.920;4.628;2023-07-30T07:13:41;14.97;;;3.03;;
15130;SDS011;7666;50.920;4.628;2023-07-30T07:16:27;17.90;;;3.97;;
15130;SDS011;7666;50.920;4.628;2023-07-30T07:19:13;15.47;;;3.87;;
15130;SDS011;7666;50.920;4.628;2023-07-30T07:21:59;10.60;;;3.13;;
15130;SDS011;7666;50.920;4.628;2023-07-30T07:24:45;16.70;;;3.63;;
15130;SDS011;7666;50.920;4.628;2023-07-30T07:27:31;13.57;;;3.23;;
15130;SDS011;7666;50.920;4.628;2023-07-30T07:30:18;15.17;;;3.60;;
15130;SDS011;7666;50.920;4.628;2023-07-30T07:33:04;10.10;;;3.00;;
15130;SDS011;7666;50.920;4.628;2023-07-30T07:35:51;13.67;;;3.00;;
15130;SDS011;7666;50.920;4.628;2023-07-30T07:38:37;11.30;;;3.50;;
15130;SDS011;7666;50.920;4.628;2023-07-30T07:41:23;10.47;;;3.00;;
15130;SDS011;7666;50.920;4.628;2023-07-30T07:44:09;12.57;;;3.27;;
15130;SDS011;7666;50.920;4.628;2023-07-30T07:46:55;15.57;;;3.50;;
15130;SDS011;7666;50.920;4.628;2023-07-30T07:49:41;11.30;;;2.90;;
15130;SDS011;7666;50.920;4.628;2023-07-30T07:52:27;13.40;;;3.33;;
15130;SDS011;7666;50.920;4.628;2023-07-30T07:55:13;10.83;;;2.93;;
15130;SDS011;7666;50.920;4.628;2023-07-30T07:57:59;13.10;;;3.07;;
15130;SDS011;7666;50.920;4.628;2023-07-30T08:00:45;13.50;;;2.90;;
15130;SDS011;7666;50.920;4.628;2023-07-30T08:03:31;9.50;;;2.37;;
15130;SDS011;7666;50.920;4.628;2023-07-30T08:06:17;10.67;;;2.77;;
15130;SDS011;7666;50.920;4.628;2023-07-30T08:09:03;15.20;;;3.80;;
15130;SDS011;7666;50.920;4.628;2023-07-30T08:11:49;11.97;;;2.97;;
15130;SDS011;7666;50.920;4.628;2023-07-30T08:14:35;8.93;;;2.60;;
15130;SDS011;7666;50.920;4.628;2023-07-30T08:17:20;9.53;;;2.60;;
15130;SDS011;7666;50.920;4.628;2023-07-30T08:20:07;12.40;;;2.67;;
15130;SDS011;7666;50.920;4.628;2023-07-30T08:22:53;12.97;;;2.90;;
15130;SDS011;7666;50.920;4.628;2023-07-30T08:25:39;9.70;;;2.87;;
15130;SDS011;7666;50.920;4.628;2023-07-30T08:28:25;15.10;;;3.27;;
15130;SDS011;7666;50.920;4.628;2023-07-30T08:31:11;9.77;;;2.77;;
15130;SDS011;7666;50.920;4.628;2023-07-30T08:33:57;12.23;;;3.13;;
15130;SDS011;7666;50.920;4.628;2023-07-30T08:36:43;10.27;;;2.90;;
15130;SDS011;7666;50.920;4.628;2023-07-30T08:39:29;9.13;;;2.63;;
15130;SDS011;7666;50.920;4.628;2023-07-30T08:42:15;10.53;;;2.60;;
15130;SDS011;7666;50.920;4.628;2023-07-30T08:45:02;10.70;;;2.43;;
15130;SDS011;7666;50.920;4.628;2023-07-30T08:47:53;11.00;;;2.13;;
15130;SDS011;7666;50.920;4.628;2023-07-30T08:50:39;9.77;;;2.27;;
15130;SDS011;7666;50.920;4.628;2023-07-30T08:53:26;9.87;;;2.73;;
15130;SDS011;7666;50.920;4.628;2023-07-30T08:56:12;12.73;;;2.73;;
15130;SDS011;7666;50.920;4.628;2023-07-30T08:58:58;11.33;;;2.47;;
15130;SDS011;7666;50.920;4.628;2023-07-30T09:01:46;9.97;;;2.53;;
15130;SDS011;7666;50.920;4.628;2023-07-30T09:04:34;7.87;;;2.43;;
15130;SDS011;7666;50.920;4.628;2023-07-30T09:07:23;9.33;;;2.43;;
15130;SDS011;7666;50.920;4.628;2023-07-30T09:10:09;11.23;;;2.43;;
15130;SDS011;7666;50.920;4.628;2023-07-30T09:12:56;6.27;;;1.87;;
15130;SDS011;7666;50.920;4.628;2023-07-30T09:15:44;7.83;;;1.87;;
15130;SDS011;7666;50.920;4.628;2023-07-30T09:18:38;5.13;;;1.90;;
15130;SDS011;7666;50.920;4.628;2023-07-30T09:21:31;5.37;;;1.40;;
15130;SDS011;7666;50.920;4.628;2023-07-30T09:24:22;4.17;;;1.20;;
15130;SDS011;7666;50.920;4.628;2023-07-30T09:27:08;4.50;;;1.33;;
15130;SDS011;7666;50.920;4.628;2023-07-30T09:29:57;3.93;;;1.37;;
15130;SDS011;7666;50.920;4.628;2023-07-30T09:32:44;4.70;;;1.33;;
15130;SDS011;7666;50.920;4.628;2023-07-30T09:35:32;4.40;;;1.40;;
15130;SDS011;7666;50.920;4.628;2023-07-30T09:38:19;4.37;;;1.60;;
15130;SDS011;7666;50.920;4.628;2023-07-30T09:41:05;7.23;;;1.80;;
15130;SDS011;7666;50.920;4.628;2023-07-30T09:43:57;6.50;;;1.47;;
15130;SDS011;7666;50.920;4.628;2023-07-30T09:46:45;7.17;;;1.77;;
15130;SDS011;7666;50.920;4.628;2023-07-30T09:49:33;5.93;;;1.93;;
15130;SDS011;7666;50.920;4.628;2023-07-30T09:52:20;5.70;;;1.43;;
15130;SDS011;7666;50.920;4.628;2023-07-30T09:55:07;7.53;;;2.00;;
15130;SDS011;7666;50.920;4.628;2023-07-30T09:57:53;7.63;;;1.90;;
15130;SDS011;7666;50.920;4.628;2023-07-30T10:00:39;7.60;;;2.50;;
15130;SDS011;7666;50.920;4.628;2023-07-30T10:03:26;7.83;;;2.87;;
15130;SDS011;7666;50.920;4.628;2023-07-30T10:06:13;6.80;;;2.30;;
15130;SDS011;7666;50.920;4.628;2023-07-30T10:09:00;7.13;;;2.07;;
15130;SDS011;7666;50.920;4.628;2023-07-30T10:11:47;6.37;;;1.90;;
15130;SDS011;7666;50.920;4.628;2023-07-30T10:14:36;7.23;;;2.30;;
15130;SDS011;7666;50.920;4.628;2023-07-30T10:17:22;5.10;;;1.93;;
15130;SDS011;7666;50.920;4.628;2023-07-30T10:23:27;5.87;;;2.20;;
15130;SDS011;7666;50.920;4.628;2023-07-30T10:26:14;8.97;;;2.03;;
15130;SDS011;7666;50.920;4.628;2023-07-30T10:29:16;4.40;;;2.00;;
15130;SDS011;7666;50.920;4.628;2023-07-30T10:32:03;9.23;;;2.27;;
15130;SDS011;7666;50.920;4.628;2023-07-30T10:34:49;7.77;;;2.27;;
15130;SDS011;7666;50.920;4.628;2023-07-30T10:37:35;9.00;;;2.70;;
15130;SDS011;7666;50.920;4.628;2023-07-30T10:40:30;7.20;;;2.13;;
15130;SDS011;7666;50.920;4.628;2023-07-30T10:43:16;8.10;;;2.50;;
15130;SDS011;7666;50.920;4.628;2023-07-30T10:46:02;9.97;;;2.70;;
15130;SDS011;7666;50.920;4.628;2023-07-30T10:48:48;8.53;;;2.30;;
15130;SDS011;7666;50.920;4.628;2023-07-30T10:51:34;7.40;;;1.83;;
15130;SDS011;7666;50.920;4.628;2023-07-30T10:54:21;8.10;;;1.93;;
15130;SDS011;7666;50.920;4.628;2023-07-30T10:57:07;7.03;;;2.10;;
15130;SDS011;7666;50.920;4.628;2023-07-30T10:59:53;9.70;;;2.13;;
15130;SDS011;7666;50.920;4.628;2023-07-30T11:02:40;8.53;;;2.23;;
15130;SDS011;7666;50.920;4.628;2023-07-30T11:05:26;8.60;;;1.97;;
15130;SDS011;7666;50.920;4.628;2023-07-30T11:08:12;7.33;;;1.90;;
15130;SDS011;7666;50.920;4.628;2023-07-30T11:10:58;7.70;;;1.97;;
15130;SDS011;7666;50.920;4.628;2023-07-30T11:13:46;6.67;;;1.90;;
15130;SDS011;7666;50.920;4.628;2023-07-30T11:16:32;8.17;;;2.30;;
15130;SDS011;7666;50.920;4.628;2023-07-30T11:19:18;8.27;;;1.93;;
15130;SDS011;7666;50.920;4.628;2023-07-30T11:22:04;6.90;;;2.10;;
15130;SDS011;7666;50.920;4.628;2023-07-30T11:24:54;7.37;;;2.30;;
15130;SDS011;7666;50.920;4.628;2023-07-30T11:27:50;12.53;;;2.73;;
15130;SDS011;7666;50.920;4.628;2023-07-30T11:30:36;6.07;;;2.17;;
15130;SDS011;7666;50.920;4.628;2023-07-30T11:33:23;10.93;;;2.50;;
15130;SDS011;7666;50.920;4.628;2023-07-30T11:36:10;8.57;;;2.27;;
15130;SDS011;7666;50.920;4.628;2023-07-30T11:38:57;6.87;;;1.80;;
15130;SDS011;7666;50.920;4.628;2023-07-30T11:41:43;8.20;;;2.33;;
15130;SDS011;7666;50.920;4.628;2023-07-30T11:44:32;6.73;;;2.03;;
15130;SDS011;7666;50.920;4.628;2023-07-30T11:47:22;8.23;;;1.90;;
15130;SDS011;7666;50.920;4.628;2023-07-30T11:50:08;8.53;;;2.00;;
15130;SDS011;7666;50.920;4.628;2023-07-30T11:52:55;7.23;;;2.10;;
15130;SDS011;7666;50.920;4.628;2023-07-30T11:55:42;4.27;;;1.67;;
15130;SDS011;7666;50.920;4.628;2023-07-30T11:58:29;7.23;;;1.90;;
15130;SDS011;7666;50.920;4.628;2023-07-30T12:01:15;6.40;;;1.63;;
15130;SDS011;7666;50.920;4.628;2023-07-30T12:04:03;7.00;;;1.63;;
15130;SDS011;7666;50.920;4.628;2023-07-30T12:06:51;5.73;;;1.50;;
15130;SDS011;7666;50.920;4.628;2023-07-30T12:09:38;4.70;;;1.50;;
15130;SDS011;7666;50.920;4.628;2023-07-30T12:12:24;4.57;;;1.10;;
15130;SDS011;7666;50.920;4.628;2023-07-30T12:15:12;6.20;;;1.57;;
15130;SDS011;7666;50.920;4.628;2023-07-30T12:17:58;5.90;;;1.63;;
15130;SDS011;7666;50.920;4.628;2023-07-30T12:20:44;4.77;;;1.20;;
15130;SDS011;7666;50.920;4.628;2023-07-30T12:23:31;4.90;;;1.43;;
15130;SDS011;7666;50.920;4.628;2023-07-30T12:26:16;4.10;;;1.57;;
15130;SDS011;7666;50.920;4.628;2023-07-30T12:29:02;4.23;;;1.27;;
15130;SDS011;7666;50.920;4.628;2023-07-30T12:31:48;6.33;;;1.40;;
15130;SDS011;7666;50.920;4.628;2023-07-30T12:34:37;5.30;;;1.20;;
15130;SDS011;7666;50.920;4.628;2023-07-30T12:37:23;5.00;;;1.40;;
15130;SDS011;7666;50.920;4.628;2023-07-30T12:40:09;6.83;;;1.80;;
15130;SDS011;7666;50.920;4.628;2023-07-30T12:42:55;9.57;;;1.67;;
15130;SDS011;7666;50.920;4.628;2023-07-30T12:45:41;4.77;;;1.53;;
15130;SDS011;7666;50.920;4.628;2023-07-30T12:48:27;4.07;;;1.30;;
15130;SDS011;7666;50.920;4.628;2023-07-30T12:51:13;4.87;;;1.40;;
15130;SDS011;7666;50.920;4.628;2023-07-30T12:53:59;6.17;;;1.63;;
15130;SDS011;7666;50.920;4.628;2023-07-30T12:56:45;6.03;;;2.00;;
15130;SDS011;7666;50.920;4.628;2023-07-30T12:59:31;5.83;;;1.87;;
15130;SDS011;7666;50.920;4.628;2023-07-30T13:02:17;5.23;;;1.60;;
15130;SDS011;7666;50.920;4.628;2023-07-30T13:05:03;7.90;;;1.57;;
15130;SDS011;7666;50.920;4.628;2023-07-30T13:07:49;5.80;;;1.60;;
15130;SDS011;7666;50.920;4.628;2023-07-30T13:10:35;6.37;;;2.00;;
15130;SDS011;7666;50.920;4.628;2023-07-30T13:13:21;7.47;;;1.57;;
15130;SDS011;7666;50.920;4.628;2023-07-30T13:16:09;7.50;;;1.53;;
15130;SDS011;7666;50.920;4.628;2023-07-30T13:18:55;4.27;;;1.53;;
15130;SDS011;7666;50.920;4.628;2023-07-30T13:21:42;5.67;;;1.43;;
15130;SDS011;7666;50.920;4.628;2023-07-30T13:24:28;6.40;;;1.40;;
15130;SDS011;7666;50.920;4.628;2023-07-30T13:27:17;8.07;;;1.83;;
15130;SDS011;7666;50.920;4.628;2023-07-30T13:30:03;4.40;;;1.57;;
15130;SDS011;7666;50.920;4.628;2023-07-30T13:32:50;3.80;;;1.40;;
15130;SDS011;7666;50.920;4.628;2023-07-30T13:35:36;3.90;;;1.40;;
15130;SDS011;7666;50.920;4.628;2023-07-30T13:38:22;3.77;;;1.63;;
15130;SDS011;7666;50.920;4.628;2023-07-30T13:41:08;6.13;;;1.70;;
15130;SDS011;7666;50.920;4.628;2023-07-30T13:43:54;6.50;;;1.60;;
15130;SDS011;7666;50.920;4.628;2023-07-30T13:46:40;4.73;;;1.37;;
15130;SDS011;7666;50.920;4.628;2023-07-30T13:49:26;3.90;;;1.50;;
15130;SDS011;7666;50.920;4.628;2023-07-30T13:52:12;5.63;;;1.60;;
15130;SDS011;7666;50.920;4.628;2023-07-30T13:54:58;7.03;;;1.67;;
15130;SDS011;7666;50.920;4.628;2023-07-30T13:57:44;7.67;;;1.67;;
15130;SDS011;7666;50.920;4.628;2023-07-30T14:00:31;4.83;;;1.70;;
15130;SDS011;7666;50.920;4.628;2023-07-30T14:03:17;5.20;;;1.57;;
15130;SDS011;7666;50.920;4.628;2023-07-30T14:06:03;7.43;;;1.73;;
15130;SDS011;7666;50.920;4.628;2023-07-30T14:08:49;5.10;;;2.00;;
15130;SDS011;7666;50.920;4.628;2023-07-30T14:11:35;4.77;;;1.60;;
15130;SDS011;7666;50.920;4.628;2023-07-30T14:14:22;4.80;;;1.53;;
15130;SDS011;7666;50.920;4.628;2023-07-30T14:17:08;6.10;;;1.87;;
15130;SDS011;7666;50.920;4.628;2023-07-30T14:19:54;4.30;;;1.90;;
15130;SDS011;7666;50.920;4.628;2023-07-30T14:22:41;7.70;;;2.33;;
15130;SDS011;7666;50.920;4.628;2023-07-30T14:25:27;6.67;;;2.13;;
15130;SDS011;7666;50.920;4.628;2023-07-30T14:28:13;4.03;;;1.77;;
15130;SDS011;7666;50.920;4.628;2023-07-30T14:31:00;5.03;;;1.77;;
15130;SDS011;7666;50.920;4.628;2023-07-30T14:33:45;5.30;;;2.10;;
15130;SDS011;7666;50.920;4.628;2023-07-30T14:36:31;6.03;;;1.93;;
15130;SDS011;7666;50.920;4.628;2023-07-30T14:39:17;4.97;;;1.80;;
15130;SDS011;7666;50.920;4.628;2023-07-30T14:42:03;4.73;;;1.50;;
15130;SDS011;7666;50.920;4.628;2023-07-30T14:44:50;5.77;;;1.80;;
15130;SDS011;7666;50.920;4.628;2023-07-30T14:47:36;6.67;;;2.17;;
15130;SDS011;7666;50.920;4.628;2023-07-30T14:50:22;5.43;;;2.13;;
15130;SDS011;7666;50.920;4.628;2023-07-30T14:53:08;4.67;;;1.80;;
15130;SDS011;7666;50.920;4.628;2023-07-30T14:55:54;6.93;;;2.00;;
15130;SDS011;7666;50.920;4.628;2023-07-30T14:58:41;5.93;;;2.03;;
15130;SDS011;7666;50.920;4.628;2023-07-30T15:01:28;6.03;;;2.17;;
15130;SDS011;7666;50.920;4.628;2023-07-30T15:04:14;6.63;;;1.90;;
15130;SDS011;7666;50.920;4.628;2023-07-30T15:07:00;7.70;;;2.30;;
15130;SDS011;7666;50.920;4.628;2023-07-30T15:09:47;8.23;;;1.93;;
15130;SDS011;7666;50.920;4.628;2023-07-30T15:12:36;9.23;;;2.37;;
15130;SDS011;7666;50.920;4.628;2023-07-30T15:15:22;6.17;;;2.23;;
15130;SDS011;7666;50.920;4.628;2023-07-30T15:18:09;6.90;;;2.27;;
15130;SDS011;7666;50.920;4.628;2023-07-30T15:20:55;6.70;;;2.53;;
15130;SDS011;7666;50.920;4.628;2023-07-30T15:23:45;7.20;;;2.53;;
15130;SDS011;7666;50.920;4.628;2023-07-30T15:26:31;6.23;;;2.37;;
15130;SDS011;7666;50.920;4.628;2023-07-30T15:29:18;4.23;;;1.90;;
15130;SDS011;7666;50.920;4.628;2023-07-30T15:32:04;6.47;;;2.13;;
15130;SDS011;7666;50.920;4.628;2023-07-30T15:34:50;7.67;;;2.33;;
15130;SDS011;7666;50.920;4.628;2023-07-30T15:37:37;10.37;;;2.17;;
15130;SDS011;7666;50.920;4.628;2023-07-30T15:40:23;6.23;;;2.53;;
15130;SDS011;7666;50.920;4.628;2023-07-30T15:43:09;4.80;;;2.00;;
15130;SDS011;7666;50.920;4.628;2023-07-30T15:45:57;8.13;;;2.83;;
15130;SDS011;7666;50.920;4.628;2023-07-30T15:48:47;7.00;;;2.67;;
15130;SDS011;7666;50.920;4.628;2023-07-30T15:51:33;5.87;;;2.60;;
15130;SDS011;7666;50.920;4.628;2023-07-30T15:54:30;6.33;;;2.50;;
15130;SDS011;7666;50.920;4.628;2023-07-30T15:57:19;6.03;;;2.50;;
15130;SDS011;7666;50.920;4.628;2023-07-30T16:00:05;8.77;;;2.77;;
15130;SDS011;7666;50.920;4.628;2023-07-30T16:02:52;9.03;;;2.87;;
15130;SDS011;7666;50.920;4.628;2023-07-30T16:05:38;6.60;;;2.73;;
15130;SDS011;7666;50.920;4.628;2023-07-30T16:08:37;11.00;;;3.03;;
15130;SDS011;7666;50.920;4.628;2023-07-30T16:11:24;8.27;;;3.37;;
15130;SDS011;7666;50.920;4.628;2023-07-30T16:14:10;9.50;;;2.90;;
15130;SDS011;7666;50.920;4.628;2023-07-30T16:16:56;7.00;;;2.90;;
15130;SDS011;7666;50.920;4.628;2023-07-30T16:19:42;7.10;;;2.40;;
15130;SDS011;7666;50.920;4.628;2023-07-30T16:22:28;8.23;;;2.37;;
15130;SDS011;7666;50.920;4.628;2023-07-30T16:25:14;8.60;;;2.53;;
15130;SDS011;7666;50.920;4.628;2023-07-30T16:28:00;5.07;;;2.07;;
15130;SDS011;7666;50.920;4.628;2023-07-30T16:30:46;6.83;;;2.30;;
15130;SDS011;7666;50.920;4.628;2023-07-30T16:33:32;5.87;;;2.13;;
15130;SDS011;7666;50.920;4.628;2023-07-30T16:36:18;6.73;;;2.40;;
15130;SDS011;7666;50.920;4.628;2023-07-30T16:39:04;5.37;;;2.70;;
15130;SDS011;7666;50.920;4.628;2023-07-30T16:41:50;5.80;;;2.30;;
15130;SDS011;7666;50.920;4.628;2023-07-30T16:44:36;5.13;;;2.60;;
15130;SDS011;7666;50.920;4.628;2023-07-30T16:47:22;6.67;;;2.80;;
15130;SDS011;7666;50.920;4.628;2023-07-30T16:50:08;5.03;;;2.50;;
15130;SDS011;7666;50.920;4.628;2023-07-30T16:52:54;6.97;;;2.60;;
15130;SDS011;7666;50.920;4.628;2023-07-30T16:55:40;7.10;;;3.07;;